Time;durP1;ratioP1;P1;durP2;ratioP2;P2;SDS_P1;SDS_P2;PMS_P1;PMS_P2;Temp;Humidity;BMP_temperature;BMP_pressure;BME280_temperature;BME280_humidity;BME280_pressure;Samples;Min_cycle;Max_cycle;Signal;HPM_P1;HPM_P2
2021/10/30 01:33:53;;;;;;;26.40;20.17;;;;;;;8.12;92.59;101723.23;1732603;80;21101;-59
2021/10/30 01:36:22;;;;;;;28.65;21.12;;;;;;;8.13;92.51;101717.42;1711811;82;21017;-59
2021/10/30 01:38:50;;;;;;;33.10;24.67;;;;;;;8.13;92.48;101714.77;1710963;82;21080;-60
2021/10/30 01:41:18;;;;;;;31.20;22.67;;;;;;;8.11;92.61;101719.38;1711649;82;21029;-59
2021/10/30 01:43:45;;;;;;;26.63;20.20;;;;;;;8.10;92.64;101722.99;1679011;82;21132;-60
2021/10/30 01:46:12;;;;;;;32.93;23.43;;;;;;;8.11;92.75;101723.36;1743539;80;21057;-61
2021/10/30 01:48:39;;;;;;;34.08;24.10;;;;;;;8.11;92.85;101720.20;1749790;80;21006;-59
2021/10/30 01:51:07;;;;;;;30.37;24.87;;;;;;;8.13;92.79;101720.91;1746549;80;21057;-60
2021/10/30 01:53:34;;;;;;;35.30;24.40;;;;;;;8.16;92.70;101721.97;1750066;80;21041;-59
2021/10/30 01:56:03;;;;;;;30.97;21.90;;;;;;;8.22;92.66;101723.73;1748116;80;21037;-59
2021/10/30 01:58:30;;;;;;;29.40;21.30;;;;;;;8.29;92.62;101725.69;1740544;80;21456;-59
2021/10/30 02:00:57;;;;;;;;;;;;;;;8.34;92.22;101726.58;1736368;80;21524;-59
2021/10/30 02:03:24;;;;;;;;;;;;;;;8.36;91.75;101720.63;1750829;80;20147;-59
2021/10/30 02:05:52;;;;;;;27.97;21.43;;;;;;;8.30;91.54;101732.66;1741476;82;20336;-62
2021/10/30 02:08:21;;;;;;;31.23;22.23;;;;;;;8.25;91.65;101728.27;1683561;84;21074;-60
2021/10/30 02:10:48;;;;;;;32.90;23.13;;;;;;;8.25;91.79;101722.09;1659800;84;21547;-59
2021/10/30 02:13:17;;;;;;;31.87;22.03;;;;;;;8.28;91.85;101729.30;1722960;82;21045;-60
2021/10/30 02:15:44;;;;;;;33.00;23.60;;;;;;;8.30;91.73;101727.34;1714716;81;21050;-61
2021/10/30 02:18:13;;;;;;;27.13;20.60;;;;;;;8.34;91.69;101727.44;1715217;82;22200;-60
2021/10/30 02:20:40;;;;;;;27.33;20.50;;;;;;;8.39;91.67;101728.34;1715571;82;21083;-60
2021/10/30 02:23:07;;;;;;;27.90;20.47;;;;;;;8.46;91.31;101731.32;1715809;82;21063;-60
2021/10/30 02:25:34;;;;;;;31.77;22.00;;;;;;;8.46;90.87;101739.30;1713564;82;21558;-59
2021/10/30 02:28:00;;;;;;;24.87;19.87;;;;;;;8.42;90.70;101733.88;1746761;82;21033;-60
2021/10/30 02:30:28;;;;;;;27.87;19.43;;;;;;;8.43;90.75;101735.08;1749793;81;21536;-61
2021/10/30 02:32:54;;;;;;;27.02;20.97;;;;;;;8.45;90.83;101733.61;1748782;82;21513;-59
2021/10/30 02:35:22;;;;;;;29.67;22.17;;;;;;;8.44;90.67;101738.09;1746740;81;21012;-62
2021/10/30 02:37:49;;;;;;;27.17;19.40;;;;;;;8.44;90.59;101742.08;1749057;81;21140;-60
2021/10/30 02:40:15;;;;;;;;;;;;;;;8.42;90.49;101744.51;1747020;81;21149;-61
2021/10/30 02:42:40;;;;;;;27.27;20.17;;;;;;;8.40;90.52;101745.97;1717030;82;20147;-58
2021/10/30 02:45:09;;;;;;;32.53;22.45;;;;;;;8.34;90.83;101747.84;1736717;82;21017;-59
2021/10/30 02:47:36;;;;;;;29.17;21.43;;;;;;;8.34;90.89;101743.38;1724565;82;22550;-59
2021/10/30 02:50:03;;;;;;;31.97;23.10;;;;;;;8.35;90.80;101746.38;1732986;82;20989;-58
2021/10/30 02:52:29;;;;;;;28.77;21.97;;;;;;;8.37;90.84;101749.73;1744090;81;20974;-60
2021/10/30 02:54:55;;;;;;;35.23;24.55;;;;;;;8.42;90.91;101747.16;1731389;81;21535;-60
2021/10/30 02:57:21;;;;;;;35.83;24.32;;;;;;;8.46;90.90;101746.77;1745336;81;21889;-61
2021/10/30 02:59:49;;;;;;;42.00;23.40;;;;;;;8.48;90.66;101747.96;1679662;83;20994;-61
2021/10/30 03:02:15;;;;;;;37.10;23.45;;;;;;;8.43;90.57;101747.03;1740522;81;21044;-61
2021/10/30 03:04:41;;;;;;;34.33;21.60;;;;;;;8.37;90.64;101748.40;1737081;81;21100;-61
2021/10/30 03:07:07;;;;;;;30.12;23.30;;;;;;;8.35;90.64;101750.86;1736198;81;21031;-61
2021/10/30 03:09:33;;;;;;;37.75;24.80;;;;;;;8.35;90.89;101753.52;1730334;81;21587;-64
2021/10/30 03:11:59;;;;;;;33.55;23.62;;;;;;;8.35;90.92;101752.19;1741250;81;21000;-58
2021/10/30 03:14:26;;;;;;;37.70;25.73;;;;;;;8.35;90.96;101753.02;1742859;81;21001;-60
2021/10/30 03:16:52;;;;;;;40.25;25.57;;;;;;;8.36;91.11;101756.03;1734696;81;21065;-59
2021/10/30 03:19:18;;;;;;;32.95;22.60;;;;;;;8.37;91.03;101752.38;1727752;81;21057;-59
2021/10/30 03:21:45;;;;;;;39.03;26.68;;;;;;;8.41;91.06;101754.77;1754490;81;21453;-61
2021/10/30 03:24:11;;;;;;;40.40;25.35;;;;;;;8.42;90.91;101753.81;1741550;81;20969;-59
2021/10/30 03:26:37;;;;;;;33.60;22.58;;;;;;;8.43;90.89;101750.19;1742735;81;21556;-60
2021/10/30 03:29:03;;;;;;;33.00;23.32;;;;;;;8.44;90.87;101755.37;1742950;81;21021;-62
2021/10/30 03:31:29;;;;;;;31.02;22.05;;;;;;;8.39;90.78;101753.08;1732786;81;21037;-59
2021/10/30 03:33:55;;;;;;;31.65;21.27;;;;;;;8.38;90.79;101756.73;1738818;81;21001;-60
2021/10/30 03:36:21;;;;;;;39.58;25.12;;;;;;;8.36;90.87;101757.36;1739747;81;21087;-60
2021/10/30 03:38:48;;;;;;;;;;;;;;;8.35;90.82;101762.31;1744879;81;21535;-62
2021/10/30 03:41:14;;;;;;;40.20;24.30;;;;;;;8.28;91.05;101759.86;1738555;81;20151;-61
2021/10/30 03:43:40;;;;;;;;;;;;;;;8.18;91.38;101761.17;1743879;81;21100;-59
2021/10/30 03:46:06;;;;;;;40.57;23.47;;;;;;;8.15;91.69;101761.94;1743053;81;21387;-59
2021/10/30 03:48:32;;;;;;;38.63;22.95;;;;;;;8.09;91.95;101760.67;1736707;81;21519;-60
2021/10/30 03:50:59;;;;;;;37.83;23.50;;;;;;;8.11;92.01;101762.70;1742044;81;21448;-60
2021/10/30 03:53:25;;;;;;;39.33;24.18;;;;;;;8.14;92.01;101761.60;1742407;81;21129;-60
2021/10/30 03:55:51;;;;;;;37.85;23.60;;;;;;;8.19;91.98;101762.01;1739410;81;21083;-61
2021/10/30 03:58:17;;;;;;;35.35;21.68;;;;;;;8.25;91.90;101762.81;1739766;81;21080;-61
2021/10/30 04:00:44;;;;;;;40.05;23.87;;;;;;;8.28;91.54;101763.84;1738273;81;21520;-58
2021/10/30 04:03:11;;;;;;;34.17;23.77;;;;;;;8.22;91.45;101752.94;1740139;81;21551;-59
2021/10/30 04:05:39;;;;;;;33.97;21.83;;;;;;;8.18;91.55;101759.02;1740949;81;21462;-64
2021/10/30 04:08:14;;;;;;;34.30;23.17;;;;;;;8.15;91.46;101761.44;1741260;81;21052;-62
2021/10/30 04:10:39;;;;;;;33.93;25.40;;;;;;;8.13;91.74;101758.09;1738200;81;21027;-61
2021/10/30 04:13:06;;;;;;;37.57;23.30;;;;;;;8.11;91.84;101750.75;1744101;81;21107;-59
2021/10/30 04:15:32;;;;;;;38.28;24.63;;;;;;;8.09;92.05;101751.38;1740630;81;21037;-60
2021/10/30 04:17:58;;;;;;;34.50;24.37;;;;;;;8.09;92.27;101747.89;1740978;81;21516;-59
2021/10/30 04:20:25;;;;;;;41.53;26.15;;;;;;;8.11;92.32;101749.91;1741449;81;21008;-60
2021/10/30 04:22:53;;;;;;;43.75;24.67;;;;;;;8.09;92.33;101746.56;1741978;81;21150;-60
2021/10/30 04:25:19;;;;;;;44.60;26.33;;;;;;;8.09;92.29;101746.56;1744557;81;20973;-59
2021/10/30 04:27:45;;;;;;;43.30;25.52;;;;;;;8.08;92.20;101748.39;1741016;81;21067;-61
2021/10/30 04:30:11;;;;;;;38.30;24.77;;;;;;;8.06;92.18;101745.50;1743275;81;21044;-60
2021/10/30 04:35:48;;;;;;;42.37;26.03;;;;;;;7.89;92.04;101714.67;1768373;79;22160;-61
2021/10/30 04:38:15;;;;;;;44.47;27.10;;;;;;;8.09;92.06;101753.20;1712244;82;21061;-61
2021/10/30 04:40:41;;;;;;;41.03;25.20;;;;;;;8.06;91.92;101752.14;1682082;84;21544;-61
2021/10/30 04:43:08;;;;;;;35.83;23.20;;;;;;;8.06;91.76;101750.80;1703823;82;21682;-59
2021/10/30 04:45:34;;;;;;;38.17;23.77;;;;;;;8.04;91.79;101758.08;1692614;81;20986;-58
2021/10/30 04:48:00;;;;;;;35.05;22.05;;;;;;;8.00;91.76;101760.16;1698246;84;21059;-62
2021/10/30 04:50:26;;;;;;;27.25;19.17;;;;;;;7.99;91.75;101758.50;1650338;85;21066;-58
2021/10/30 04:52:53;;;;;;;33.80;20.67;;;;;;;7.99;91.93;101759.33;1686364;83;21559;-59
2021/10/30 04:55:19;;;;;;;30.00;20.92;;;;;;;8.01;91.88;101761.02;1701158;82;21035;-66
2021/10/30 04:57:45;;;;;;;28.27;19.10;;;;;;;8.01;91.84;101758.37;1653591;85;21461;-61
2021/10/30 05:00:13;;;;;;;32.53;20.88;;;;;;;7.96;91.93;101752.95;1660038;85;21145;-59
2021/10/30 05:02:41;;;;;;;31.57;20.10;;;;;;;7.98;91.88;101758.96;1664879;85;21164;-60
2021/10/30 05:05:08;;;;;;;34.65;20.88;;;;;;;7.96;92.16;101756.94;1686276;84;21282;-60
2021/10/30 05:07:34;;;;;;;36.97;23.53;;;;;;;7.79;92.17;101735.86;1684889;84;21037;-62
2021/10/30 05:10:00;;;;;;;32.98;20.00;;;;;;;7.99;92.09;101770.45;1696147;83;21081;-61
2021/10/30 05:12:26;;;;;;;36.90;21.23;;;;;;;8.03;92.20;101767.03;1696993;82;21504;-61
2021/10/30 05:14:52;;;;;;;41.25;22.73;;;;;;;8.07;92.17;101765.78;1712546;82;21502;-62
2021/10/30 05:17:18;;;;;;;36.13;22.30;;;;;;;8.08;92.08;101759.47;1672545;84;21028;-65
2021/10/30 05:19:44;;;;;;;33.55;22.10;;;;;;;8.06;92.12;101770.73;1709676;82;21520;-61
2021/10/30 05:22:12;;;;;;;30.50;19.27;;;;;;;8.07;91.96;101769.77;1719405;82;21041;-64
2021/10/30 05:24:38;;;;;;;27.35;19.10;;;;;;;8.03;91.68;101771.84;1714753;82;20988;-60
2021/10/30 05:27:06;;;;;;;33.60;21.48;;;;;;;8.02;91.52;101768.83;1711134;82;21001;-60
2021/10/30 05:29:32;;;;;;;33.93;23.07;;;;;;;8.04;91.47;101771.35;1706080;82;21477;-58
2021/10/30 05:31:58;;;;;;;44.70;25.90;;;;;;;8.04;91.39;101777.50;1708431;82;21088;-58
2021/10/30 05:34:25;;;;;;;37.03;23.87;;;;;;;8.04;91.29;101774.01;1716260;82;21075;-56
2021/10/30 05:37:03;;;;;;;35.70;24.10;;;;;;;8.07;91.37;101778.56;1742867;80;21591;-61
2021/10/30 05:39:31;;;;;;;31.10;22.80;;;;;;;8.05;90.95;101773.88;1749233;80;20998;-61
2021/10/30 05:41:57;;;;;;;;;;;;;;;8.02;91.14;101776.80;1750741;80;21139;-60
2021/10/30 05:44:23;;;;;;;45.97;28.53;;;;;;;8.03;91.02;101781.64;1744745;80;20106;-61
2021/10/30 05:46:50;;;;;;;41.02;27.80;;;;;;;8.01;91.28;101784.92;1746804;81;20977;-61
2021/10/30 05:49:18;;;;;;;37.20;25.00;;;;;;;8.01;91.37;101788.91;1737731;81;21065;-61
2021/10/30 05:51:44;;;;;;;43.77;27.73;;;;;;;8.03;91.29;101786.45;1741895;80;21092;-59
2021/10/30 05:54:12;;;;;;;40.63;25.23;;;;;;;8.04;91.34;101792.10;1745688;81;21032;-61
2021/10/30 05:56:38;;;;;;;38.50;24.33;;;;;;;8.07;91.33;101788.35;1704616;80;21000;-61
2021/10/30 05:59:04;;;;;;;34.10;22.98;;;;;;;8.04;90.89;101789.45;1739115;81;20993;-63
2021/10/30 06:01:30;;;;;;;31.82;23.80;;;;;;;7.98;90.76;101787.34;1739012;80;21031;-62
2021/10/30 06:03:56;;;;;;;37.30;25.35;;;;;;;7.94;90.60;101790.75;1733808;81;21005;-65
2021/10/30 06:06:22;;;;;;;39.05;25.97;;;;;;;7.88;90.66;101795.28;1706738;83;21162;-62
2021/10/30 06:08:49;;;;;;;37.48;25.72;;;;;;;7.83;90.63;101793.52;1740597;81;21476;-62
2021/10/30 06:11:16;;;;;;;42.93;26.00;;;;;;;7.80;90.88;101790.65;1734763;80;21168;-60
2021/10/30 06:13:42;;;;;;;40.43;24.98;;;;;;;7.79;91.20;101792.11;1753010;81;21057;-62
2021/10/30 06:16:09;;;;;;;48.57;24.00;;;;;;;7.76;91.66;101800.33;1734185;81;21431;-62
2021/10/30 06:18:36;;;;;;;34.33;23.27;;;;;;;7.74;91.86;101799.16;1737978;81;21596;-67
2021/10/30 06:21:03;;;;;;;35.37;23.47;;;;;;;7.59;91.87;101772.14;1742497;81;21104;-61
2021/10/30 06:23:29;;;;;;;43.70;28.60;;;;;;;7.70;92.25;101804.84;1729005;81;20973;-63
2021/10/30 06:25:55;;;;;;;50.33;27.65;;;;;;;7.68;92.40;101806.30;1701404;82;21026;-63
2021/10/30 06:28:22;;;;;;;35.08;26.07;;;;;;;7.66;92.36;101798.97;1703230;82;21544;-68
2021/10/30 06:30:48;;;;;;;;;;;;;;;7.68;92.24;101798.84;1711937;82;21023;-64
2021/10/30 06:33:14;;;;;;;46.33;28.80;;;;;;;7.71;92.28;101805.22;1719018;81;20506;-68
2021/10/30 06:35:40;;;;;;;41.85;29.70;;;;;;;7.66;92.61;101796.31;1763630;80;21644;-63
2021/10/30 06:38:06;;;;;;;43.98;28.62;;;;;;;7.68;92.66;101802.82;1738813;80;21013;-64
2021/10/30 06:40:33;;;;;;;41.88;26.15;;;;;;;7.74;92.47;101803.14;1704054;82;21025;-66
2021/10/30 06:42:59;;;;;;;34.18;22.87;;;;;;;7.81;92.49;101799.45;1710552;82;21037;-65
2021/10/30 06:45:25;;;;;;;40.17;27.42;;;;;;;7.90;92.36;101800.46;1710958;82;21011;-65
2021/10/30 06:47:51;;;;;;;48.85;30.55;;;;;;;7.91;91.90;101799.01;1676962;83;21041;-66
2021/10/30 06:50:21;;;;;;;52.73;31.77;;;;;;;7.91;91.68;101801.66;1734357;80;21084;-65
2021/10/30 06:52:50;;;;;;;40.97;29.30;;;;;;;7.94;91.49;101801.87;1733851;80;21040;-67
2021/10/30 06:55:18;;;;;;;42.93;27.43;;;;;;;7.91;91.29;101800.33;1736632;80;21052;-67
2021/10/30 06:57:46;;;;;;;49.27;27.57;;;;;;;7.85;91.23;101806.66;1738099;80;21045;-65
2021/10/30 07:00:14;;;;;;;49.67;30.77;;;;;;;7.82;91.08;101803.80;1742594;80;21072;-66
2021/10/30 07:02:42;;;;;;;46.33;30.93;;;;;;;7.84;91.28;101807.64;1742074;80;21038;-69
2021/10/30 07:05:08;;;;;;;51.93;32.27;;;;;;;7.85;91.23;101810.14;1754603;80;21579;-64
2021/10/30 07:07:36;;;;;;;46.13;29.03;;;;;;;7.83;91.24;101810.77;1745244;80;21108;-66
2021/10/30 07:10:04;;;;;;;;;;;;;;;7.79;91.01;101809.36;1745090;80;20972;-70
2021/10/30 07:12:33;;;;;;;40.67;27.70;;;;;;;7.79;91.03;101815.50;1741237;80;20180;-67
2021/10/30 07:15:00;;;;;;;39.70;24.80;;;;;;;7.76;91.16;101813.59;1721365;82;21456;-66
2021/10/30 07:17:27;;;;;;;40.70;23.50;;;;;;;7.71;91.03;101815.83;1738967;82;21021;-64
2021/10/30 07:19:54;;;;;;;37.05;22.20;;;;;;;7.69;91.22;101811.15;1713443;82;20970;-62
2021/10/30 07:22:21;;;;;;;29.47;21.00;;;;;;;7.68;90.95;101812.94;1713389;82;21112;-60
2021/10/30 07:24:47;;;;;;;;;;;;;;;7.66;91.06;101812.73;1709480;82;21010;-64
2021/10/30 07:27:16;;;;;;;34.03;20.83;;;;;;;7.62;90.94;101817.95;1716161;82;20118;-63
2021/10/30 07:29:46;;;;;;;35.37;23.03;;;;;;;7.51;91.53;101821.03;1704613;82;21068;-64
2021/10/30 07:32:13;;;;;;;40.17;24.17;;;;;;;7.49;91.75;101823.47;1709247;82;21544;-67
2021/10/30 07:34:40;;;;;;;40.57;26.70;;;;;;;7.48;91.90;101825.30;1704928;82;21049;-62
2021/10/30 07:37:06;;;;;;;52.08;32.05;;;;;;;7.47;91.74;101828.08;1712645;82;21517;-64
2021/10/30 07:39:34;;;;;;;47.35;28.95;;;;;;;7.48;91.70;101822.64;1712700;82;21013;-66
2021/10/30 07:42:02;;;;;;;40.10;29.40;;;;;;;7.52;91.76;101832.02;1706626;82;21090;-67
2021/10/30 07:44:28;;;;;;;43.43;31.73;;;;;;;7.55;91.54;101825.12;1713380;79;21054;-65
2021/10/30 07:46:54;;;;;;;44.33;28.67;;;;;;;7.53;90.94;101823.06;1728954;82;21082;-64
2021/10/30 07:49:21;;;;;;;36.35;25.57;;;;;;;7.51;90.82;101820.20;1708014;82;21078;-63
2021/10/30 07:51:48;;;;;;;37.67;27.67;;;;;;;7.49;90.64;101826.95;1714421;82;21033;-60
2021/10/30 07:54:15;;;;;;;37.17;28.95;;;;;;;7.47;90.72;101828.08;1707257;82;21118;-62
2021/10/30 07:56:41;;;;;;;34.17;24.77;;;;;;;7.42;90.87;101828.45;1715704;82;21091;-63
2021/10/30 07:59:07;;;;;;;36.65;25.70;;;;;;;7.46;90.92;101831.22;1703321;82;21048;-68
2021/10/30 08:01:35;;;;;;;36.50;25.37;;;;;;;7.44;90.42;101835.81;1718235;82;21043;-59
2021/10/30 08:04:02;;;;;;;31.00;22.53;;;;;;;7.39;90.45;101839.34;1703443;82;21583;-65
2021/10/30 08:06:28;;;;;;;32.83;22.50;;;;;;;7.36;90.67;101838.27;1706226;82;21693;-61
2021/10/30 08:08:54;;;;;;;38.95;24.65;;;;;;;7.30;90.89;101837.47;1709562;82;21532;-61
2021/10/30 08:11:20;;;;;;;37.20;23.00;;;;;;;7.30;91.00;101839.63;1712231;80;21018;-56
2021/10/30 08:13:46;;;;;;;40.50;24.30;;;;;;;7.33;91.15;101839.87;1706266;82;21055;-57
2021/10/30 08:16:12;;;;;;;36.45;25.02;;;;;;;7.32;91.22;101839.50;1698583;82;21049;-66
2021/10/30 08:18:40;;;;;;;31.83;23.33;;;;;;;7.37;91.13;101838.64;1706899;82;21040;-63
2021/10/30 08:21:06;;;;;;;35.80;24.30;;;;;;;7.39;90.94;101835.36;1722122;82;21155;-64
2021/10/30 08:23:32;;;;;;;35.10;26.02;;;;;;;7.46;90.68;101843.16;1707329;82;21552;-65
2021/10/30 08:25:59;;;;;;;42.97;29.30;;;;;;;7.43;90.34;101836.78;1706400;82;21121;-63
2021/10/30 08:28:25;;;;;;;36.00;26.15;;;;;;;7.41;90.31;101842.70;1709643;82;21036;-62
2021/10/30 08:30:52;;;;;;;31.83;23.83;;;;;;;7.38;90.43;101847.80;1708700;82;21036;-67
2021/10/30 08:33:18;;;;;;;34.03;26.57;;;;;;;7.37;89.88;101844.77;1708157;80;21081;-64
2021/10/30 08:35:43;;;;;;;38.45;25.52;;;;;;;7.31;89.71;101849.74;1711833;82;21053;-64
2021/10/30 08:38:11;;;;;;;31.93;26.03;;;;;;;7.27;89.86;101845.67;1709679;82;21045;-65
2021/10/30 08:40:39;;;;;;;38.25;27.80;;;;;;;7.18;90.38;101850.80;1712822;82;20974;-65
2021/10/30 08:43:08;;;;;;;40.93;30.00;;;;;;;7.19;90.50;101847.65;1714695;82;20994;-63
2021/10/30 08:45:36;;;;;;;40.93;30.10;;;;;;;7.17;90.78;101840.31;1659010;83;21076;-63
2021/10/30 08:48:04;;;;;;;45.35;31.85;;;;;;;7.30;91.07;101850.73;1714714;82;21074;-63
2021/10/30 08:50:32;;;;;;;36.03;28.60;;;;;;;7.34;90.68;101851.66;1712954;82;21124;-66
2021/10/30 08:53:00;;;;;;;27.10;21.48;;;;;;;7.30;90.03;101826.36;1707044;82;21696;-64
2021/10/30 08:55:27;;;;;;;29.93;23.73;;;;;;;7.35;89.11;101836.60;1712937;82;20986;-64
2021/10/30 08:57:53;;;;;;;37.42;27.02;;;;;;;7.24;89.30;101851.25;1739560;80;21061;-66
2021/10/30 09:00:23;;;;;;;;;;;;;;;7.20;89.64;101844.88;1713399;81;21005;-66
2021/10/30 09:03:00;;;;;;;43.23;27.70;;;;;;;7.14;89.90;101840.09;1723956;81;20109;-65
2021/10/30 09:05:27;;;;;;;;;;;;;;;7.12;90.17;101848.67;1721059;81;20961;-67
2021/10/30 09:08:00;;;;;;;40.80;27.93;;;;;;;6.93;90.66;101810.06;1718014;81;20137;-66
2021/10/30 09:10:35;;;;;;;41.10;28.03;;;;;;;7.11;90.98;101842.16;1725157;82;21031;-65
2021/10/30 09:13:09;;;;;;;45.13;30.83;;;;;;;7.16;91.04;101828.88;1716365;82;21006;-65
2021/10/30 09:15:46;;;;;;;43.23;30.07;;;;;;;7.17;90.74;101837.16;1701858;82;21042;-66
2021/10/30 09:18:36;;;;;;;37.60;29.97;;;;;;;7.14;90.59;101840.09;1700515;82;21037;-65
2021/10/30 09:21:15;;;;;;;40.37;28.70;;;;;;;7.19;90.55;101840.52;1705322;82;21036;-66
2021/10/30 09:23:52;;;;;;;37.47;28.00;;;;;;;7.17;90.42;101837.66;1717120;80;21082;-67
2021/10/30 09:26:22;;;;;;;37.70;29.37;;;;;;;7.21;90.36;101843.92;1725734;81;21084;-64
2021/10/30 09:28:58;;;;;;;39.20;27.73;;;;;;;7.24;90.34;101848.61;1722106;81;21008;-65
2021/10/30 09:31:26;;;;;;;38.50;26.50;;;;;;;7.22;90.46;101855.36;1724435;81;21064;-66
2021/10/30 09:34:02;;;;;;;36.00;25.97;;;;;;;7.27;90.26;101850.98;1735093;81;21043;-65
2021/10/30 09:36:38;;;;;;;35.17;24.87;;;;;;;7.31;90.24;101845.77;1733588;81;21030;-65
2021/10/30 09:39:11;;;;;;;38.27;28.80;;;;;;;7.39;90.14;101834.03;1737507;81;21483;-65
2021/10/30 09:41:42;;;;;;;33.23;23.63;;;;;;;7.47;90.11;101835.53;1724068;81;21034;-64
2021/10/30 09:44:20;;;;;;;34.30;24.97;;;;;;;7.56;89.70;101835.25;1731265;80;20982;-65
2021/10/30 09:46:55;;;;;;;35.77;24.30;;;;;;;7.64;89.56;101838.56;1729127;81;21583;-64
2021/10/30 09:49:28;;;;;;;34.07;23.63;;;;;;;7.69;88.96;101827.08;1723137;81;21121;-64
2021/10/30 09:52:09;;;;;;;35.60;24.77;;;;;;;7.67;88.38;101832.51;1686817;79;62397;-65
2021/10/30 09:54:41;;;;;;;31.23;22.53;;;;;;;7.69;88.54;101825.25;1687060;84;21011;-65
2021/10/30 09:57:28;;;;;;;33.47;24.70;;;;;;;7.77;88.59;101820.59;1725931;81;20988;-66
2021/10/30 09:59:59;;;;;;;36.00;25.53;;;;;;;7.77;87.82;101820.10;1724862;81;20999;-64
2021/10/30 10:02:26;;;;;;;34.97;25.67;;;;;;;7.76;87.86;101821.56;1741932;81;20972;-65
2021/10/30 10:04:53;;;;;;;34.03;26.47;;;;;;;7.75;87.88;101815.91;1741843;81;21120;-65
2021/10/30 10:07:25;;;;;;;40.03;30.67;;;;;;;7.76;88.02;101814.46;1734480;81;21172;-65
2021/10/30 10:09:53;;;;;;;41.43;32.43;;;;;;;7.80;87.84;101822.50;1736629;81;21021;-64
2021/10/30 10:12:19;;;;;;;41.75;31.12;;;;;;;7.79;87.65;101821.30;1732063;81;20986;-65
2021/10/30 10:14:46;;;;;;;33.57;26.83;;;;;;;7.78;87.37;101813.00;1685465;84;21150;-63
2021/10/30 10:17:12;;;;;;;38.38;30.08;;;;;;;7.80;87.13;101819.84;1703819;82;21008;-65
2021/10/30 10:19:41;;;;;;;34.73;27.63;;;;;;;7.77;86.93;101817.95;1692590;83;20999;-64
2021/10/30 10:22:08;;;;;;;37.23;29.20;;;;;;;7.73;87.19;101824.50;1651654;84;21103;-66
2021/10/30 10:24:36;;;;;;;32.53;25.97;;;;;;;7.73;87.26;101820.52;1664134;85;21076;-68
2021/10/30 10:27:06;;;;;;;32.30;25.93;;;;;;;7.76;87.54;101818.91;1698463;84;21010;-65
2021/10/30 10:29:43;;;;;;;41.93;26.43;;;;;;;7.82;87.48;101826.36;1662858;85;21676;-67
2021/10/30 10:32:23;;;;;;;52.98;29.37;;;;;;;7.88;87.12;101823.16;1679711;84;21053;-66
2021/10/30 10:34:51;;;;;;;41.87;28.97;;;;;;;7.91;87.19;101825.56;1665701;84;21008;-67
2021/10/30 10:37:23;;;;;;;34.40;26.20;;;;;;;7.93;86.95;101823.61;1637410;87;20985;-65
2021/10/30 10:39:59;;;;;;;41.40;31.43;;;;;;;7.95;86.59;101817.67;1653028;85;21030;-66
2021/10/30 10:42:42;;;;;;;35.67;24.57;;;;;;;8.03;86.44;101816.16;1644756;85;21063;-65
2021/10/30 10:45:16;;;;;;;40.27;25.97;;;;;;;8.09;86.02;101815.61;1678367;83;21006;-66
2021/10/30 10:47:49;;;;;;;39.63;27.53;;;;;;;8.09;85.69;101812.45;1701808;83;21021;-67
2021/10/30 10:50:30;;;;;;;47.17;29.80;;;;;;;8.05;85.60;101818.19;1712890;82;21040;-67
2021/10/30 10:53:15;;;;;;;34.80;24.67;;;;;;;8.00;85.97;101809.28;1704676;83;21007;-64
2021/10/30 10:55:51;;;;;;;39.00;25.83;;;;;;;8.06;86.12;101814.08;1659730;83;21021;-66
2021/10/30 10:58:17;;;;;;;39.87;26.07;;;;;;;8.17;85.59;101807.33;1688246;83;21016;-65
2021/10/30 11:01:07;;;;;;;36.10;26.65;;;;;;;8.19;85.13;101808.02;1665731;84;21055;-65
2021/10/30 11:03:46;;;;;;;35.23;29.13;;;;;;;8.17;85.17;101803.80;1667297;84;21085;-67
2021/10/30 11:06:15;;;;;;;34.43;25.37;;;;;;;8.12;85.17;101798.09;1668653;84;21101;-66
2021/10/30 11:08:41;;;;;;;36.10;28.47;;;;;;;7.99;85.31;101804.47;1670435;84;21097;-67
2021/10/30 11:11:14;;;;;;;38.15;28.45;;;;;;;7.87;85.54;101800.72;1688690;83;21054;-65
2021/10/30 11:13:54;;;;;;;38.43;29.00;;;;;;;7.80;86.31;101790.65;1636413;86;21057;-66
2021/10/30 11:16:32;;;;;;;38.00;29.10;;;;;;;7.72;86.30;101789.63;1687897;83;21028;-66
2021/10/30 11:19:32;;;;;;;34.93;30.03;;;;;;;7.67;86.83;101787.39;1666855;84;21009;-66
2021/10/30 11:22:00;;;;;;;37.67;27.50;;;;;;;7.67;86.81;101783.91;1671109;84;21161;-63
2021/10/30 11:24:30;;;;;;;33.00;26.50;;;;;;;7.71;87.06;101789.30;1638100;86;21009;-64
2021/10/30 11:27:01;;;;;;;36.17;28.83;;;;;;;7.69;86.75;101780.62;1640435;86;21565;-67
2021/10/30 11:29:29;;;;;;;30.50;26.13;;;;;;;7.69;86.72;101777.97;1633455;86;21147;-66
2021/10/30 11:32:02;;;;;;;32.37;27.27;;;;;;;7.64;86.95;101780.18;1693565;84;21044;-65
2021/10/30 11:34:29;;;;;;;34.27;28.63;;;;;;;7.60;87.06;101784.42;1680716;84;22336;-63
2021/10/30 11:36:56;;;;;;;29.90;25.30;;;;;;;7.53;87.54;101787.24;1667458;84;21577;-63
2021/10/30 11:39:28;;;;;;;34.17;28.50;;;;;;;7.50;87.81;101785.37;1638006;86;21640;-62
2021/10/30 11:41:55;;;;;;;37.57;30.30;;;;;;;7.46;88.11;101781.28;1675301;83;21086;-65
2021/10/30 11:44:23;;;;;;;36.45;30.02;;;;;;;7.40;88.54;101787.48;1658688;84;21512;-65
2021/10/30 11:46:54;;;;;;;33.27;27.00;;;;;;;7.42;88.49;101782.02;1667273;84;21133;-64
2021/10/30 11:49:33;;;;;;;32.83;27.17;;;;;;;7.43;88.68;101773.11;1689059;83;21043;-63
2021/10/30 11:52:05;;;;;;;35.93;28.43;;;;;;;7.43;88.87;101773.11;1659393;84;21022;-63
2021/10/30 11:54:34;;;;;;;32.07;26.53;;;;;;;7.47;88.97;101773.19;1689619;83;21038;-63
2021/10/30 11:57:05;;;;;;;31.57;26.23;;;;;;;7.51;88.78;101775.92;1656975;84;21064;-62
2021/10/30 11:59:33;;;;;;;32.13;25.80;;;;;;;7.53;88.37;101777.13;1650180;85;21019;-64
2021/10/30 12:01:59;;;;;;;32.55;26.15;;;;;;;7.51;88.46;101788.36;1665540;84;21006;-63
2021/10/30 12:04:35;;;;;;;38.17;28.07;;;;;;;7.53;88.35;101781.10;1697386;83;21130;-63
2021/10/30 12:07:03;;;;;;;32.67;25.77;;;;;;;7.56;88.41;101778.20;1678003;84;21086;-63
2021/10/30 12:09:34;;;;;;;36.53;29.17;;;;;;;7.62;88.54;101771.52;1697716;84;21007;-64
2021/10/30 12:12:05;;;;;;;38.33;27.27;;;;;;;7.62;88.68;101768.86;1660560;84;21025;-64
2021/10/30 12:14:40;;;;;;;36.73;27.77;;;;;;;7.66;88.55;101769.77;1689995;84;21032;-62
2021/10/30 12:17:15;;;;;;;30.53;21.57;;;;;;;7.73;88.16;101766.11;1660259;84;21004;-63
2021/10/30 12:19:47;;;;;;;25.20;19.00;;;;;;;7.80;87.93;101756.14;1642104;85;21103;-65
2021/10/30 12:22:26;;;;;;;33.90;25.93;;;;;;;7.84;87.43;101758.04;1659543;85;21035;-63
2021/10/30 12:25:11;;;;;;;35.97;26.80;;;;;;;7.89;87.16;101754.96;1660324;85;21027;-64
2021/10/30 12:27:49;;;;;;;43.57;31.53;;;;;;;7.85;86.87;101753.06;1648744;85;21507;-64
2021/10/30 12:30:27;;;;;;;41.10;30.80;;;;;;;7.75;87.04;101749.56;1658930;85;21180;-64
2021/10/30 12:32:56;;;;;;;34.63;26.50;;;;;;;7.76;87.17;101746.77;1623149;88;21749;-64
2021/10/30 12:35:28;;;;;;;26.30;20.10;;;;;;;7.79;87.25;101750.47;1667200;83;21027;-64
2021/10/30 12:38:15;;;;;;;22.70;18.90;;;;;;;7.77;86.40;101751.59;1660664;85;21062;-63
2021/10/30 12:40:43;;;;;;;27.83;22.67;;;;;;;7.72;85.52;101753.80;1646593;85;21704;-65
2021/10/30 12:43:26;;;;;;;28.70;23.23;;;;;;;7.66;85.32;101746.38;1662976;85;21059;-62
2021/10/30 12:46:03;;;;;;;26.83;22.10;;;;;;;7.54;85.30;101760.24;1664689;83;20999;-65
2021/10/30 12:48:42;;;;;;;28.80;21.43;;;;;;;7.50;85.66;101758.34;1687414;83;21093;-64
2021/10/30 12:51:22;;;;;;;25.17;22.47;;;;;;;7.51;85.80;101749.89;1687665;83;20996;-62
2021/10/30 12:53:53;;;;;;;25.60;22.40;;;;;;;7.57;85.64;101752.86;1634264;86;21015;-64
2021/10/30 12:56:20;;;;;;;27.17;23.60;;;;;;;7.62;85.28;101756.42;1656050;85;21119;-62
2021/10/30 12:59:00;;;;;;;29.23;24.70;;;;;;;7.63;84.81;101743.98;1688282;83;21029;-65
2021/10/30 13:01:30;;;;;;;30.97;24.93;;;;;;;7.63;84.79;101751.95;1675863;83;21510;-64
2021/10/30 13:04:11;;;;;;;30.73;25.20;;;;;;;7.63;84.73;101754.60;1681570;83;21049;-65